sensor_id;sensor_type;location;lat;lon;timestamp;temperature;humidity
39655;DHT22;25336;59.944;11.010;2024-02-16T00:00:24;2.90;78.00
39655;DHT22;25336;59.944;11.010;2024-02-16T00:02:50;2.90;78.00
39655;DHT22;25336;59.944;11.010;2024-02-16T00:05:15;2.90;78.00
39655;DHT22;25336;59.944;11.010;2024-02-16T00:07:41;2.90;78.00
39655;DHT22;25336;59.944;11.010;2024-02-16T00:10:08;2.90;78.00
39655;DHT22;25336;59.944;11.010;2024-02-16T00:12:38;2.10;77.50
39655;DHT22;25336;59.944;11.010;2024-02-16T00:15:06;3.00;78.20
39655;DHT22;25336;59.944;11.010;2024-02-16T00:17:32;3.00;78.20
39655;DHT22;25336;59.944;11.010;2024-02-16T00:19:59;3.00;78.20
39655;DHT22;25336;59.944;11.010;2024-02-16T00:22:24;3.00;78.30
39655;DHT22;25336;59.944;11.010;2024-02-16T00:24:51;3.00;78.30
39655;DHT22;25336;59.944;11.010;2024-02-16T00:27:17;3.10;78.30
39655;DHT22;25336;59.944;11.010;2024-02-16T00:29:43;3.10;78.30
39655;DHT22;25336;59.944;11.010;2024-02-16T00:32:09;3.10;78.30
39655;DHT22;25336;59.944;11.010;2024-02-16T00:34:36;3.10;78.30
39655;DHT22;25336;59.944;11.010;2024-02-16T00:37:03;3.20;78.50
39655;DHT22;25336;59.944;11.010;2024-02-16T00:39:36;3.20;78.30
39655;DHT22;25336;59.944;11.010;2024-02-16T00:42:03;3.20;78.30
39655;DHT22;25336;59.944;11.010;2024-02-16T00:44:28;3.20;78.30
39655;DHT22;25336;59.944;11.010;2024-02-16T00:46:54;3.30;78.40
39655;DHT22;25336;59.944;11.010;2024-02-16T00:49:21;3.20;78.30
39655;DHT22;25336;59.944;11.010;2024-02-16T00:51:47;3.30;78.40
39655;DHT22;25336;59.944;11.010;2024-02-16T00:54:13;3.30;78.30
39655;DHT22;25336;59.944;11.010;2024-02-16T00:56:39;3.30;78.20
39655;DHT22;25336;59.944;11.010;2024-02-16T00:59:05;3.30;78.10
39655;DHT22;25336;59.944;11.010;2024-02-16T01:01:31;3.40;78.30
39655;DHT22;25336;59.944;11.010;2024-02-16T01:03:56;2.60;77.70
39655;DHT22;25336;59.944;11.010;2024-02-16T01:06:22;3.40;78.20
39655;DHT22;25336;59.944;11.010;2024-02-16T01:08:48;3.50;78.20
39655;DHT22;25336;59.944;11.010;2024-02-16T01:11:14;3.50;78.20
39655;DHT22;25336;59.944;11.010;2024-02-16T01:13:40;3.50;79.00
39655;DHT22;25336;59.944;11.010;2024-02-16T01:16:07;3.50;78.30
39655;DHT22;25336;59.944;11.010;2024-02-16T01:18:33;3.50;78.30
39655;DHT22;25336;59.944;11.010;2024-02-16T01:21:02;3.50;78.20
39655;DHT22;25336;59.944;11.010;2024-02-16T01:23:30;3.60;78.30
39655;DHT22;25336;59.944;11.010;2024-02-16T01:25:56;3.60;78.20
39655;DHT22;25336;59.944;11.010;2024-02-16T01:28:21;3.60;78.30
39655;DHT22;25336;59.944;11.010;2024-02-16T01:30:48;3.60;78.30
39655;DHT22;25336;59.944;11.010;2024-02-16T01:33:14;3.60;78.30
39655;DHT22;25336;59.944;11.010;2024-02-16T01:35:40;3.60;78.30
39655;DHT22;25336;59.944;11.010;2024-02-16T01:38:06;3.70;78.40
39655;DHT22;25336;59.944;11.010;2024-02-16T01:40:31;3.60;78.30
39655;DHT22;25336;59.944;11.010;2024-02-16T01:42:58;3.60;78.40
39655;DHT22;25336;59.944;11.010;2024-02-16T01:45:24;3.60;78.40
39655;DHT22;25336;59.944;11.010;2024-02-16T01:47:51;3.60;78.50
39655;DHT22;25336;59.944;11.010;2024-02-16T01:50:18;3.70;78.60
39655;DHT22;25336;59.944;11.010;2024-02-16T01:52:46;3.70;78.50
39655;DHT22;25336;59.944;11.010;2024-02-16T01:55:15;3.70;78.60
39655;DHT22;25336;59.944;11.010;2024-02-16T01:57:45;3.70;78.60
39655;DHT22;25336;59.944;11.010;2024-02-16T02:00:12;5.00;79.30
39655;DHT22;25336;59.944;11.010;2024-02-16T02:02:40;3.80;78.70
39655;DHT22;25336;59.944;11.010;2024-02-16T02:05:07;3.80;78.60
39655;DHT22;25336;59.944;11.010;2024-02-16T02:07:32;3.80;78.40
39655;DHT22;25336;59.944;11.010;2024-02-16T02:09:58;3.80;78.40
39655;DHT22;25336;59.944;11.010;2024-02-16T02:12:24;3.80;78.30
39655;DHT22;25336;59.944;11.010;2024-02-16T02:14:51;3.80;78.30
39655;DHT22;25336;59.944;11.010;2024-02-16T02:17:17;3.90;79.10
39655;DHT22;25336;59.944;11.010;2024-02-16T02:19:45;3.90;78.40
39655;DHT22;25336;59.944;11.010;2024-02-16T02:22:18;3.90;78.30
39655;DHT22;25336;59.944;11.010;2024-02-16T02:24:46;3.90;78.30
39655;DHT22;25336;59.944;11.010;2024-02-16T02:27:13;3.90;78.30
39655;DHT22;25336;59.944;11.010;2024-02-16T02:29:39;3.90;78.20
39655;DHT22;25336;59.944;11.010;2024-02-16T02:32:06;4.00;78.20
39655;DHT22;25336;59.944;11.010;2024-02-16T02:34:32;3.90;78.10
39655;DHT22;25336;59.944;11.010;2024-02-16T02:36:58;3.90;78.10
39655;DHT22;25336;59.944;11.010;2024-02-16T02:39:24;4.00;78.20
39655;DHT22;25336;59.944;11.010;2024-02-16T02:41:50;3.90;78.20
39655;DHT22;25336;59.944;11.010;2024-02-16T02:44:15;3.90;78.10
39655;DHT22;25336;59.944;11.010;2024-02-16T02:46:41;4.00;78.20
39655;DHT22;25336;59.944;11.010;2024-02-16T02:49:07;3.90;78.10
39655;DHT22;25336;59.944;11.010;2024-02-16T02:51:33;3.90;78.10
39655;DHT22;25336;59.944;11.010;2024-02-16T02:53:59;3.90;78.10
39655;DHT22;25336;59.944;11.010;2024-02-16T02:56:25;4.00;78.20
39655;DHT22;25336;59.944;11.010;2024-02-16T02:58:51;3.90;78.20
39655;DHT22;25336;59.944;11.010;2024-02-16T03:01:16;3.90;78.20
39655;DHT22;25336;59.944;11.010;2024-02-16T03:03:45;4.00;78.20
39655;DHT22;25336;59.944;11.010;2024-02-16T03:06:10;4.00;78.30
39655;DHT22;25336;59.944;11.010;2024-02-16T03:08:36;3.90;78.10
39655;DHT22;25336;59.944;11.010;2024-02-16T03:11:02;4.00;78.30
39655;DHT22;25336;59.944;11.010;2024-02-16T03:13:30;4.00;78.30
39655;DHT22;25336;59.944;11.010;2024-02-16T03:15:57;4.00;78.20
39655;DHT22;25336;59.944;11.010;2024-02-16T03:18:23;4.00;78.20
39655;DHT22;25336;59.944;11.010;2024-02-16T03:20:48;4.00;78.30
39655;DHT22;25336;59.944;11.010;2024-02-16T03:23:17;4.00;78.30
39655;DHT22;25336;59.944;11.010;2024-02-16T03:25:43;3.20;77.70
39655;DHT22;25336;59.944;11.010;2024-02-16T03:28:11;4.10;78.20
39655;DHT22;25336;59.944;11.010;2024-02-16T03:30:38;4.10;78.20
39655;DHT22;25336;59.944;11.010;2024-02-16T03:33:04;4.10;78.20
39655;DHT22;25336;59.944;11.010;2024-02-16T03:35:30;4.10;78.20
39655;DHT22;25336;59.944;11.010;2024-02-16T03:37:56;4.10;78.70
39655;DHT22;25336;59.944;11.010;2024-02-16T03:40:23;4.10;78.20
39655;DHT22;25336;59.944;11.010;2024-02-16T03:42:50;4.10;78.20
39655;DHT22;25336;59.944;11.010;2024-02-16T03:45:16;4.10;78.20
39655;DHT22;25336;59.944;11.010;2024-02-16T03:47:42;4.10;78.30
39655;DHT22;25336;59.944;11.010;2024-02-16T03:50:08;4.10;78.20
39655;DHT22;25336;59.944;11.010;2024-02-16T03:52:34;4.10;78.30
39655;DHT22;25336;59.944;11.010;2024-02-16T03:55:00;4.10;78.30
39655;DHT22;25336;59.944;11.010;2024-02-16T03:57:26;4.10;78.20
39655;DHT22;25336;59.944;11.010;2024-02-16T03:59:52;4.10;78.20
39655;DHT22;25336;59.944;11.010;2024-02-16T04:02:18;4.20;78.90
39655;DHT22;25336;59.944;11.010;2024-02-16T04:04:45;4.20;78.10
39655;DHT22;25336;59.944;11.010;2024-02-16T04:07:11;4.10;78.10
39655;DHT22;25336;59.944;11.010;2024-02-16T04:09:37;4.20;78.20
39655;DHT22;25336;59.944;11.010;2024-02-16T04:12:03;4.10;78.10
39655;DHT22;25336;59.944;11.010;2024-02-16T04:14:30;4.10;78.20
39655;DHT22;25336;59.944;11.010;2024-02-16T04:16:56;3.40;77.70
39655;DHT22;25336;59.944;11.010;2024-02-16T04:19:28;4.10;78.20
39655;DHT22;25336;59.944;11.010;2024-02-16T04:21:55;4.10;78.30
39655;DHT22;25336;59.944;11.010;2024-02-16T04:24:21;4.10;78.30
39655;DHT22;25336;59.944;11.010;2024-02-16T04:26:46;4.10;78.30
39655;DHT22;25336;59.944;11.010;2024-02-16T04:29:12;4.10;78.30
39655;DHT22;25336;59.944;11.010;2024-02-16T04:31:41;4.20;78.20
39655;DHT22;25336;59.944;11.010;2024-02-16T04:34:08;4.10;78.20
39655;DHT22;25336;59.944;11.010;2024-02-16T04:36:34;4.20;78.30
39655;DHT22;25336;59.944;11.010;2024-02-16T04:39:00;4.20;78.20
39655;DHT22;25336;59.944;11.010;2024-02-16T04:41:26;4.20;78.20
39655;DHT22;25336;59.944;11.010;2024-02-16T04:43:52;4.20;78.20
39655;DHT22;25336;59.944;11.010;2024-02-16T04:46:18;4.20;78.10
39655;DHT22;25336;59.944;11.010;2024-02-16T04:48:45;4.20;78.20
39655;DHT22;25336;59.944;11.010;2024-02-16T04:51:11;4.20;78.20
39655;DHT22;25336;59.944;11.010;2024-02-16T04:53:37;4.20;78.10
39655;DHT22;25336;59.944;11.010;2024-02-16T04:56:03;4.20;78.20
39655;DHT22;25336;59.944;11.010;2024-02-16T04:58:29;3.20;77.50
39655;DHT22;25336;59.944;11.010;2024-02-16T05:00:54;4.20;78.20
39655;DHT22;25336;59.944;11.010;2024-02-16T05:03:20;4.20;78.10
39655;DHT22;25336;59.944;11.010;2024-02-16T05:05:46;4.30;78.20
39655;DHT22;25336;59.944;11.010;2024-02-16T05:08:12;4.20;78.20
39655;DHT22;25336;59.944;11.010;2024-02-16T05:10:37;4.30;78.30
39655;DHT22;25336;59.944;11.010;2024-02-16T05:13:04;4.30;78.30
39655;DHT22;25336;59.944;11.010;2024-02-16T05:15:30;4.20;78.20
39655;DHT22;25336;59.944;11.010;2024-02-16T05:17:57;4.20;78.20
39655;DHT22;25336;59.944;11.010;2024-02-16T05:20:23;4.20;78.30
39655;DHT22;25336;59.944;11.010;2024-02-16T05:22:49;4.20;78.10
39655;DHT22;25336;59.944;11.010;2024-02-16T05:25:18;4.30;78.10
39655;DHT22;25336;59.944;11.010;2024-02-16T05:27:45;4.30;78.20
39655;DHT22;25336;59.944;11.010;2024-02-16T05:30:13;4.30;78.20
39655;DHT22;25336;59.944;11.010;2024-02-16T05:32:41;4.30;78.10
39655;DHT22;25336;59.944;11.010;2024-02-16T05:35:07;4.20;78.00
39655;DHT22;25336;59.944;11.010;2024-02-16T05:37:45;4.20;78.00
39655;DHT22;25336;59.944;11.010;2024-02-16T05:40:13;4.30;78.00
39655;DHT22;25336;59.944;11.010;2024-02-16T05:42:53;4.30;78.10
39655;DHT22;25336;59.944;11.010;2024-02-16T05:45:20;4.20;78.10
39655;DHT22;25336;59.944;11.010;2024-02-16T05:47:49;4.30;78.10
39655;DHT22;25336;59.944;11.010;2024-02-16T05:50:16;4.30;78.10
39655;DHT22;25336;59.944;11.010;2024-02-16T05:52:43;4.30;78.10
39655;DHT22;25336;59.944;11.010;2024-02-16T05:55:10;4.30;78.10
39655;DHT22;25336;59.944;11.010;2024-02-16T05:57:36;4.30;78.10
39655;DHT22;25336;59.944;11.010;2024-02-16T06:00:07;4.30;78.10
39655;DHT22;25336;59.944;11.010;2024-02-16T06:02:35;4.30;78.20
39655;DHT22;25336;59.944;11.010;2024-02-16T06:05:02;4.30;78.10
39655;DHT22;25336;59.944;11.010;2024-02-16T06:07:28;4.30;78.20
39655;DHT22;25336;59.944;11.010;2024-02-16T06:09:57;4.30;78.10
39655;DHT22;25336;59.944;11.010;2024-02-16T06:12:24;4.40;78.20
39655;DHT22;25336;59.944;11.010;2024-02-16T06:14:50;4.40;78.10
39655;DHT22;25336;59.944;11.010;2024-02-16T06:17:16;4.40;78.10
39655;DHT22;25336;59.944;11.010;2024-02-16T06:19:42;4.40;78.10
39655;DHT22;25336;59.944;11.010;2024-02-16T06:22:09;4.40;78.00
39655;DHT22;25336;59.944;11.010;2024-02-16T06:24:35;4.40;78.00
39655;DHT22;25336;59.944;11.010;2024-02-16T06:27:01;4.40;77.90
39655;DHT22;25336;59.944;11.010;2024-02-16T06:29:27;4.40;78.00
39655;DHT22;25336;59.944;11.010;2024-02-16T06:31:53;5.00;78.30
39655;DHT22;25336;59.944;11.010;2024-02-16T06:34:19;4.40;78.00
39655;DHT22;25336;59.944;11.010;2024-02-16T06:36:45;4.40;77.90
39655;DHT22;25336;59.944;11.010;2024-02-16T06:39:11;4.50;78.00
39655;DHT22;25336;59.944;11.010;2024-02-16T06:41:45;4.50;77.90
39655;DHT22;25336;59.944;11.010;2024-02-16T06:44:15;4.50;78.00
39655;DHT22;25336;59.944;11.010;2024-02-16T06:46:42;4.50;77.90
39655;DHT22;25336;59.944;11.010;2024-02-16T06:49:08;4.50;77.70
39655;DHT22;25336;59.944;11.010;2024-02-16T06:51:34;4.60;77.70
39655;DHT22;25336;59.944;11.010;2024-02-16T06:53:59;4.60;77.60
39655;DHT22;25336;59.944;11.010;2024-02-16T06:56:26;4.50;77.60
39655;DHT22;25336;59.944;11.010;2024-02-16T06:58:52;4.60;77.60
39655;DHT22;25336;59.944;11.010;2024-02-16T07:01:17;4.60;77.50
39655;DHT22;25336;59.944;11.010;2024-02-16T07:03:46;4.60;77.50
39655;DHT22;25336;59.944;11.010;2024-02-16T07:06:12;4.60;77.50
39655;DHT22;25336;59.944;11.010;2024-02-16T07:08:43;4.60;77.50
39655;DHT22;25336;59.944;11.010;2024-02-16T07:11:10;4.00;77.10
39655;DHT22;25336;59.944;11.010;2024-02-16T07:13:42;4.60;77.40
39655;DHT22;25336;59.944;11.010;2024-02-16T07:16:08;4.60;77.40
39655;DHT22;25336;59.944;11.010;2024-02-16T07:18:34;4.60;77.40
39655;DHT22;25336;59.944;11.010;2024-02-16T07:21:01;4.60;77.40
39655;DHT22;25336;59.944;11.010;2024-02-16T07:23:28;4.60;77.50
39655;DHT22;25336;59.944;11.010;2024-02-16T07:25:55;4.60;77.40
39655;DHT22;25336;59.944;11.010;2024-02-16T07:28:23;4.60;77.40
39655;DHT22;25336;59.944;11.010;2024-02-16T07:30:50;4.60;77.50
39655;DHT22;25336;59.944;11.010;2024-02-16T07:33:16;4.80;77.50
39655;DHT22;25336;59.944;11.010;2024-02-16T07:35:41;4.70;77.40
39655;DHT22;25336;59.944;11.010;2024-02-16T07:38:07;4.60;78.10
39655;DHT22;25336;59.944;11.010;2024-02-16T07:40:33;4.70;77.40
39655;DHT22;25336;59.944;11.010;2024-02-16T07:42:59;4.70;77.40
39655;DHT22;25336;59.944;11.010;2024-02-16T07:45:26;4.70;77.40
39655;DHT22;25336;59.944;11.010;2024-02-16T07:47:52;4.70;77.40
39655;DHT22;25336;59.944;11.010;2024-02-16T07:50:21;4.70;77.40
39655;DHT22;25336;59.944;11.010;2024-02-16T07:52:48;4.70;77.40
39655;DHT22;25336;59.944;11.010;2024-02-16T07:55:14;4.70;77.40
39655;DHT22;25336;59.944;11.010;2024-02-16T07:57:39;4.70;77.50
39655;DHT22;25336;59.944;11.010;2024-02-16T08:00:06;4.70;77.40
39655;DHT22;25336;59.944;11.010;2024-02-16T08:02:32;4.70;77.50
39655;DHT22;25336;59.944;11.010;2024-02-16T08:04:59;4.70;77.40
39655;DHT22;25336;59.944;11.010;2024-02-16T08:07:24;4.80;77.50
39655;DHT22;25336;59.944;11.010;2024-02-16T08:09:50;4.70;77.40
39655;DHT22;25336;59.944;11.010;2024-02-16T08:12:17;4.80;77.40
39655;DHT22;25336;59.944;11.010;2024-02-16T08:14:43;4.80;77.30
39655;DHT22;25336;59.944;11.010;2024-02-16T08:17:10;4.80;77.30
39655;DHT22;25336;59.944;11.010;2024-02-16T08:19:37;4.80;77.30
39655;DHT22;25336;59.944;11.010;2024-02-16T08:22:05;4.80;77.30
39655;DHT22;25336;59.944;11.010;2024-02-16T08:24:35;4.80;77.30
39655;DHT22;25336;59.944;11.010;2024-02-16T08:27:01;4.80;77.20
39655;DHT22;25336;59.944;11.010;2024-02-16T08:29:27;4.80;77.30
39655;DHT22;25336;59.944;11.010;2024-02-16T08:31:54;4.80;77.30
39655;DHT22;25336;59.944;11.010;2024-02-16T08:34:20;4.80;77.30
39655;DHT22;25336;59.944;11.010;2024-02-16T08:36:48;4.80;77.40
39655;DHT22;25336;59.944;11.010;2024-02-16T08:39:14;4.30;77.20
39655;DHT22;25336;59.944;11.010;2024-02-16T08:41:41;4.80;77.50
39655;DHT22;25336;59.944;11.010;2024-02-16T08:44:07;4.80;77.40
39655;DHT22;25336;59.944;11.010;2024-02-16T08:46:39;4.90;77.40
39655;DHT22;25336;59.944;11.010;2024-02-16T08:49:06;4.90;77.30
39655;DHT22;25336;59.944;11.010;2024-02-16T08:51:32;4.90;77.30
39655;DHT22;25336;59.944;11.010;2024-02-16T08:53:59;4.90;77.30
39655;DHT22;25336;59.944;11.010;2024-02-16T08:56:25;4.90;77.20
39655;DHT22;25336;59.944;11.010;2024-02-16T08:58:51;4.90;77.20
39655;DHT22;25336;59.944;11.010;2024-02-16T09:01:17;4.90;77.20
39655;DHT22;25336;59.944;11.010;2024-02-16T09:03:43;4.90;77.20
39655;DHT22;25336;59.944;11.010;2024-02-16T09:06:09;5.00;77.30
39655;DHT22;25336;59.944;11.010;2024-02-16T09:08:35;5.00;77.20
39655;DHT22;25336;59.944;11.010;2024-02-16T09:11:02;5.00;77.20
39655;DHT22;25336;59.944;11.010;2024-02-16T09:13:35;5.10;77.30
39655;DHT22;25336;59.944;11.010;2024-02-16T09:16:02;5.10;77.20
39655;DHT22;25336;59.944;11.010;2024-02-16T09:18:32;5.10;77.30
39655;DHT22;25336;59.944;11.010;2024-02-16T09:20:58;5.10;77.20
39655;DHT22;25336;59.944;11.010;2024-02-16T09:23:24;5.20;77.20
39655;DHT22;25336;59.944;11.010;2024-02-16T09:25:49;5.20;77.20
39655;DHT22;25336;59.944;11.010;2024-02-16T09:28:16;5.30;77.30
39655;DHT22;25336;59.944;11.010;2024-02-16T09:30:44;5.30;77.20
39655;DHT22;25336;59.944;11.010;2024-02-16T09:33:10;5.30;77.00
39655;DHT22;25336;59.944;11.010;2024-02-16T09:35:36;5.40;77.00
39655;DHT22;25336;59.944;11.010;2024-02-16T09:38:02;5.40;76.80
39655;DHT22;25336;59.944;11.010;2024-02-16T09:40:28;5.40;76.70
39655;DHT22;25336;59.944;11.010;2024-02-16T09:42:54;5.40;76.50
39655;DHT22;25336;59.944;11.010;2024-02-16T09:45:20;5.40;76.40
39655;DHT22;25336;59.944;11.010;2024-02-16T09:47:46;5.50;76.30
39655;DHT22;25336;59.944;11.010;2024-02-16T09:50:15;5.50;76.20
39655;DHT22;25336;59.944;11.010;2024-02-16T09:52:46;5.50;76.20
39655;DHT22;25336;59.944;11.010;2024-02-16T09:55:13;5.50;76.10
39655;DHT22;25336;59.944;11.010;2024-02-16T09:57:39;5.00;75.60
39655;DHT22;25336;59.944;11.010;2024-02-16T10:00:05;5.50;75.80
39655;DHT22;25336;59.944;11.010;2024-02-16T10:02:43;5.50;75.80
39655;DHT22;25336;59.944;11.010;2024-02-16T10:05:20;5.50;75.80
39655;DHT22;25336;59.944;11.010;2024-02-16T10:07:47;5.60;75.80
39655;DHT22;25336;59.944;11.010;2024-02-16T10:10:20;5.50;75.70
39655;DHT22;25336;59.944;11.010;2024-02-16T10:12:47;5.60;75.80
39655;DHT22;25336;59.944;11.010;2024-02-16T10:15:19;5.60;75.80
39655;DHT22;25336;59.944;11.010;2024-02-16T10:18:00;5.60;75.60
39655;DHT22;25336;59.944;11.010;2024-02-16T10:20:26;5.60;75.60
39655;DHT22;25336;59.944;11.010;2024-02-16T10:23:10;5.60;75.80
39655;DHT22;25336;59.944;11.010;2024-02-16T10:25:38;5.50;75.70
39655;DHT22;25336;59.944;11.010;2024-02-16T10:28:08;5.60;75.80
39655;DHT22;25336;59.944;11.010;2024-02-16T10:30:38;5.60;75.80
39655;DHT22;25336;59.944;11.010;2024-02-16T10:33:07;5.60;75.80
39655;DHT22;25336;59.944;11.010;2024-02-16T10:35:36;5.60;75.80
39655;DHT22;25336;59.944;11.010;2024-02-16T10:38:03;5.70;75.90
39655;DHT22;25336;59.944;11.010;2024-02-16T10:40:39;5.70;75.90
39655;DHT22;25336;59.944;11.010;2024-02-16T10:43:06;5.70;75.90
39655;DHT22;25336;59.944;11.010;2024-02-16T10:45:38;5.70;75.90
39655;DHT22;25336;59.944;11.010;2024-02-16T10:48:06;5.80;75.70
39655;DHT22;25336;59.944;11.010;2024-02-16T10:50:35;5.80;75.50
39655;DHT22;25336;59.944;11.010;2024-02-16T10:53:23;5.80;75.40
39655;DHT22;25336;59.944;11.010;2024-02-16T10:55:50;5.80;75.30
39655;DHT22;25336;59.944;11.010;2024-02-16T10:58:17;5.90;75.40
39655;DHT22;25336;59.944;11.010;2024-02-16T11:00:54;5.90;75.30
39655;DHT22;25336;59.944;11.010;2024-02-16T11:03:27;6.00;75.20
39655;DHT22;25336;59.944;11.010;2024-02-16T11:05:53;5.90;75.00
39655;DHT22;25336;59.944;11.010;2024-02-16T11:08:21;5.90;75.00
39655;DHT22;25336;59.944;11.010;2024-02-16T11:11:22;6.00;75.10
39655;DHT22;25336;59.944;11.010;2024-02-16T11:13:48;6.00;74.80
39655;DHT22;25336;59.944;11.010;2024-02-16T11:16:13;6.00;74.90
39655;DHT22;25336;59.944;11.010;2024-02-16T11:18:40;6.00;74.70
39655;DHT22;25336;59.944;11.010;2024-02-16T11:21:06;6.00;74.60
39655;DHT22;25336;59.944;11.010;2024-02-16T11:23:40;6.00;74.60
39655;DHT22;25336;59.944;11.010;2024-02-16T11:26:09;6.10;74.50
39655;DHT22;25336;59.944;11.010;2024-02-16T11:28:40;6.10;74.40
39655;DHT22;25336;59.944;11.010;2024-02-16T11:31:09;6.10;74.40
39655;DHT22;25336;59.944;11.010;2024-02-16T11:33:35;6.10;74.40
39655;DHT22;25336;59.944;11.010;2024-02-16T11:36:05;6.00;74.20
39655;DHT22;25336;59.944;11.010;2024-02-16T11:38:34;6.00;74.20
39655;DHT22;25336;59.944;11.010;2024-02-16T11:41:02;6.00;74.20
39655;DHT22;25336;59.944;11.010;2024-02-16T11:43:29;6.00;74.10
39655;DHT22;25336;59.944;11.010;2024-02-16T11:45:55;6.00;74.10
39655;DHT22;25336;59.944;11.010;2024-02-16T11:48:26;6.00;74.20
39655;DHT22;25336;59.944;11.010;2024-02-16T11:51:01;6.00;74.20
39655;DHT22;25336;59.944;11.010;2024-02-16T11:53:28;6.00;74.10
39655;DHT22;25336;59.944;11.010;2024-02-16T11:55:54;6.00;74.10
39655;DHT22;25336;59.944;11.010;2024-02-16T11:58:20;6.00;74.00
39655;DHT22;25336;59.944;11.010;2024-02-16T12:00:47;5.90;74.00
39655;DHT22;25336;59.944;11.010;2024-02-16T12:03:23;5.90;74.10
39655;DHT22;25336;59.944;11.010;2024-02-16T12:05:55;5.90;74.10
39655;DHT22;25336;59.944;11.010;2024-02-16T12:08:22;5.80;74.20
39655;DHT22;25336;59.944;11.010;2024-02-16T12:10:49;5.80;74.20
39655;DHT22;25336;59.944;11.010;2024-02-16T12:13:18;5.80;74.20
39655;DHT22;25336;59.944;11.010;2024-02-16T12:15:49;5.80;75.00
39655;DHT22;25336;59.944;11.010;2024-02-16T12:18:27;5.80;74.30
39655;DHT22;25336;59.944;11.010;2024-02-16T12:23:26;5.80;74.50
39655;DHT22;25336;59.944;11.010;2024-02-16T12:25:52;5.70;74.50
39655;DHT22;25336;59.944;11.010;2024-02-16T12:28:19;5.70;74.50
39655;DHT22;25336;59.944;11.010;2024-02-16T12:30:48;5.70;74.60
39655;DHT22;25336;59.944;11.010;2024-02-16T12:33:15;5.70;74.60
39655;DHT22;25336;59.944;11.010;2024-02-16T12:35:42;5.70;74.50
39655;DHT22;25336;59.944;11.010;2024-02-16T12:38:08;5.70;74.60
39655;DHT22;25336;59.944;11.010;2024-02-16T12:40:33;5.70;74.60
39655;DHT22;25336;59.944;11.010;2024-02-16T12:42:59;5.70;74.60
39655;DHT22;25336;59.944;11.010;2024-02-16T12:45:25;5.70;74.60
39655;DHT22;25336;59.944;11.010;2024-02-16T12:47:51;5.70;74.60
39655;DHT22;25336;59.944;11.010;2024-02-16T12:50:17;5.70;75.40
39655;DHT22;25336;59.944;11.010;2024-02-16T12:52:44;5.70;74.60
39655;DHT22;25336;59.944;11.010;2024-02-16T12:55:09;5.60;74.60
39655;DHT22;25336;59.944;11.010;2024-02-16T12:57:38;5.60;74.60
39655;DHT22;25336;59.944;11.010;2024-02-16T13:00:05;5.60;74.50
39655;DHT22;25336;59.944;11.010;2024-02-16T13:02:31;5.60;74.50
39655;DHT22;25336;59.944;11.010;2024-02-16T13:04:57;5.60;74.50
39655;DHT22;25336;59.944;11.010;2024-02-16T13:07:26;5.50;74.50
39655;DHT22;25336;59.944;11.010;2024-02-16T13:09:53;5.50;74.60
39655;DHT22;25336;59.944;11.010;2024-02-16T13:12:20;5.50;74.60
39655;DHT22;25336;59.944;11.010;2024-02-16T13:14:49;5.40;74.70
39655;DHT22;25336;59.944;11.010;2024-02-16T13:17:15;5.40;74.80
39655;DHT22;25336;59.944;11.010;2024-02-16T13:19:41;5.50;74.90
39655;DHT22;25336;59.944;11.010;2024-02-16T13:22:06;5.40;74.80
39655;DHT22;25336;59.944;11.010;2024-02-16T13:24:32;5.40;74.80
39655;DHT22;25336;59.944;11.010;2024-02-16T13:26:59;5.40;74.90
39655;DHT22;25336;59.944;11.010;2024-02-16T13:29:25;5.40;74.90
39655;DHT22;25336;59.944;11.010;2024-02-16T13:31:50;5.40;74.80
39655;DHT22;25336;59.944;11.010;2024-02-16T13:34:16;5.40;74.80
39655;DHT22;25336;59.944;11.010;2024-02-16T13:36:42;5.40;75.00
39655;DHT22;25336;59.944;11.010;2024-02-16T13:39:08;5.30;75.00
39655;DHT22;25336;59.944;11.010;2024-02-16T13:41:33;5.30;75.10
39655;DHT22;25336;59.944;11.010;2024-02-16T13:43:59;5.30;75.20
39655;DHT22;25336;59.944;11.010;2024-02-16T13:46:25;5.30;75.40
39655;DHT22;25336;59.944;11.010;2024-02-16T13:48:51;5.90;75.80
39655;DHT22;25336;59.944;11.010;2024-02-16T13:51:17;5.30;75.30
39655;DHT22;25336;59.944;11.010;2024-02-16T13:53:44;5.30;75.30
39655;DHT22;25336;59.944;11.010;2024-02-16T13:56:10;5.30;75.30
39655;DHT22;25336;59.944;11.010;2024-02-16T13:58:36;5.30;75.40
39655;DHT22;25336;59.944;11.010;2024-02-16T14:01:04;5.30;75.30
39655;DHT22;25336;59.944;11.010;2024-02-16T14:03:30;5.30;75.30
39655;DHT22;25336;59.944;11.010;2024-02-16T14:05:57;5.30;75.20
39655;DHT22;25336;59.944;11.010;2024-02-16T14:08:22;5.30;75.20
39655;DHT22;25336;59.944;11.010;2024-02-16T14:10:48;5.20;75.20
39655;DHT22;25336;59.944;11.010;2024-02-16T14:13:14;5.20;75.30
39655;DHT22;25336;59.944;11.010;2024-02-16T14:15:41;5.20;75.20
39655;DHT22;25336;59.944;11.010;2024-02-16T14:18:08;5.20;75.30
39655;DHT22;25336;59.944;11.010;2024-02-16T14:20:34;5.20;75.20
39655;DHT22;25336;59.944;11.010;2024-02-16T14:23:00;5.20;75.20
39655;DHT22;25336;59.944;11.010;2024-02-16T14:25:28;5.20;75.20
39655;DHT22;25336;59.944;11.010;2024-02-16T14:27:54;5.20;75.20
39655;DHT22;25336;59.944;11.010;2024-02-16T14:30:20;5.10;75.20
39655;DHT22;25336;59.944;11.010;2024-02-16T14:32:46;5.10;75.30
39655;DHT22;25336;59.944;11.010;2024-02-16T14:35:12;5.10;75.40
39655;DHT22;25336;59.944;11.010;2024-02-16T14:37:37;5.10;75.40
39655;DHT22;25336;59.944;11.010;2024-02-16T14:40:05;5.10;75.50
39655;DHT22;25336;59.944;11.010;2024-02-16T14:42:35;5.10;75.60
39655;DHT22;25336;59.944;11.010;2024-02-16T14:45:01;5.10;75.40
39655;DHT22;25336;59.944;11.010;2024-02-16T14:47:28;5.10;75.40
39655;DHT22;25336;59.944;11.010;2024-02-16T14:49:54;5.00;76.20
39655;DHT22;25336;59.944;11.010;2024-02-16T14:52:19;5.00;75.40
39655;DHT22;25336;59.944;11.010;2024-02-16T14:54:46;5.00;75.50
39655;DHT22;25336;59.944;11.010;2024-02-16T14:57:11;4.90;75.50
39655;DHT22;25336;59.944;11.010;2024-02-16T14:59:37;5.00;75.70
39655;DHT22;25336;59.944;11.010;2024-02-16T15:02:03;5.00;75.80
39655;DHT22;25336;59.944;11.010;2024-02-16T15:04:29;6.20;76.70
39655;DHT22;25336;59.944;11.010;2024-02-16T15:06:56;4.90;75.80
39655;DHT22;25336;59.944;11.010;2024-02-16T15:09:23;4.90;75.80
39655;DHT22;25336;59.944;11.010;2024-02-16T15:11:48;4.90;76.00
39655;DHT22;25336;59.944;11.010;2024-02-16T15:14:16;4.80;75.90
39655;DHT22;25336;59.944;11.010;2024-02-16T15:16:41;4.80;76.00
39655;DHT22;25336;59.944;11.010;2024-02-16T15:19:07;4.80;76.00
39655;DHT22;25336;59.944;11.010;2024-02-16T15:21:33;4.10;75.70
39655;DHT22;25336;59.944;11.010;2024-02-16T15:23:59;4.80;76.20
39655;DHT22;25336;59.944;11.010;2024-02-16T15:26:24;4.80;76.20
39655;DHT22;25336;59.944;11.010;2024-02-16T15:28:51;4.70;76.20
39655;DHT22;25336;59.944;11.010;2024-02-16T15:31:17;4.70;76.40